createdAt,value
2022-08-27T00:01:52.370Z,12.57
2022-08-27T00:04:20.131Z,12.25
2022-08-27T00:06:47.665Z,12.48
2022-08-27T00:09:15.147Z,11.68
2022-08-27T00:11:43.300Z,12.48
2022-08-27T00:14:11.352Z,12.57
2022-08-27T00:16:39.064Z,12.43
2022-08-27T00:19:06.539Z,13.02
2022-08-27T00:21:34.232Z,12.60
2022-08-27T00:24:02.333Z,11.75
2022-08-27T00:26:30.225Z,11.98
2022-08-27T00:28:57.938Z,11.98
2022-08-27T00:31:27.473Z,12.63
2022-08-27T00:33:56.211Z,11.80
2022-08-27T00:36:24.540Z,12.77
2022-08-27T00:38:53.874Z,11.73
2022-08-27T00:41:22.736Z,12.20
2022-08-27T00:43:59.956Z,11.93
2022-08-27T00:46:39.035Z,13.18
2022-08-27T00:49:15.274Z,11.68
2022-08-27T00:51:44.145Z,12.45
2022-08-27T00:54:12.871Z,12.05
2022-08-27T00:56:51.552Z,12.55
2022-08-27T00:59:23.123Z,12.60
2022-08-27T01:02:09.482Z,11.60
2022-08-27T01:04:40.930Z,12.07
2022-08-27T01:07:09.946Z,10.88
2022-08-27T01:09:38.296Z,12.38
2022-08-27T01:12:05.884Z,12.55
2022-08-27T01:14:34.296Z,11.70
2022-08-27T01:17:03.686Z,11.55
2022-08-27T01:19:38.628Z,11.77
2022-08-27T01:22:33.403Z,13.02
2022-08-27T01:25:06.811Z,11.80
2022-08-27T01:30:02.906Z,11.13
2022-08-27T01:32:33.880Z,12.18
2022-08-27T01:35:04.915Z,11.85
2022-08-27T01:37:33.947Z,10.88
2022-08-27T01:40:02.442Z,11.57
2022-08-27T01:42:46.796Z,12.18
2022-08-27T01:45:21.538Z,11.00
2022-08-27T01:47:49.120Z,12.30
2022-08-27T01:50:27.807Z,11.52
2022-08-27T01:52:56.577Z,11.90
2022-08-27T01:55:26.925Z,12.55
2022-08-27T01:57:55.605Z,11.98
2022-08-27T02:00:33.152Z,11.57
2022-08-27T02:03:01.444Z,12.23
2022-08-27T02:05:30.496Z,12.15
2022-08-27T02:07:59.239Z,12.02
2022-08-27T02:10:33.151Z,12.30
2022-08-27T02:13:00.779Z,12.00
2022-08-27T02:15:28.958Z,13.02
2022-08-27T02:17:56.562Z,11.75
2022-08-27T02:20:24.098Z,11.90
2022-08-27T02:22:57.327Z,11.88
2022-08-27T02:25:25.470Z,11.90
2022-08-27T02:27:54.904Z,12.27
2022-08-27T02:30:24.464Z,11.35
2022-08-27T02:32:53.341Z,12.23
2022-08-27T02:35:23.856Z,12.23
2022-08-27T02:37:53.075Z,12.55
2022-08-27T02:40:23.719Z,13.38
2022-08-27T02:42:51.484Z,13.57
2022-08-27T02:45:20.713Z,12.93
2022-08-27T02:47:48.905Z,13.57
2022-08-27T02:50:16.874Z,14.20
2022-08-27T02:52:46.377Z,14.23
2022-08-27T02:55:17.325Z,14.82
2022-08-27T02:57:45.734Z,14.70
2022-08-27T03:00:16.629Z,14.70
2022-08-27T03:02:45.163Z,14.85
2022-08-27T03:05:14.442Z,15.00
2022-08-27T03:07:42.652Z,15.52
2022-08-27T03:10:13.831Z,15.00
2022-08-27T03:12:42.061Z,14.93
2022-08-27T03:15:12.115Z,15.75
2022-08-27T03:17:57.980Z,15.65
2022-08-27T03:20:26.541Z,15.32
2022-08-27T03:22:54.891Z,16.35
2022-08-27T03:25:22.406Z,15.38
2022-08-27T03:27:49.800Z,15.30
2022-08-27T03:30:20.447Z,16.20
2022-08-27T03:32:48.258Z,16.58
2022-08-27T03:35:17.036Z,13.02
2022-08-27T03:37:44.569Z,12.13
2022-08-27T03:40:13.493Z,12.65
2022-08-27T03:42:42.473Z,12.73
2022-08-27T03:45:11.557Z,12.68
2022-08-27T03:47:39.536Z,12.27
2022-08-27T03:50:08.270Z,11.95
2022-08-27T03:52:36.328Z,12.15
2022-08-27T03:55:06.071Z,11.57
2022-08-27T03:57:34.117Z,11.30
2022-08-27T04:00:01.587Z,10.85
2022-08-27T04:02:31.754Z,11.85
2022-08-27T04:04:59.293Z,11.10
2022-08-27T04:07:26.801Z,12.77
2022-08-27T04:09:54.280Z,12.45
2022-08-27T04:12:21.836Z,13.00
2022-08-27T04:14:49.340Z,12.93
2022-08-27T04:17:16.752Z,13.73
2022-08-27T04:19:44.172Z,13.32
2022-08-27T04:22:11.708Z,14.45
2022-08-27T04:24:39.390Z,13.82
2022-08-27T04:27:07.393Z,13.57
2022-08-27T04:29:35.034Z,14.25
2022-08-27T04:32:04.603Z,14.93
2022-08-27T04:34:32.190Z,15.02
2022-08-27T04:37:00.064Z,15.15
2022-08-27T04:39:28.800Z,15.77
2022-08-27T04:41:58.472Z,15.88
2022-08-27T04:44:32.748Z,15.05
2022-08-27T04:47:03.453Z,17.02
2022-08-27T04:49:32.754Z,16.70
2022-08-27T04:52:02.114Z,16.75
2022-08-27T04:54:32.896Z,16.38
2022-08-27T04:57:04.669Z,16.88
2022-08-27T04:59:33.454Z,17.30
2022-08-27T05:02:03.637Z,17.55
2022-08-27T05:04:34.705Z,19.25
2022-08-27T05:07:02.430Z,18.48
2022-08-27T05:09:30.138Z,18.77
2022-08-27T05:11:57.582Z,18.88
2022-08-27T05:14:30.237Z,20.70
2022-08-27T05:16:59.378Z,19.98
2022-08-27T05:19:26.958Z,18.33
2022-08-27T05:21:54.498Z,18.35
2022-08-27T05:24:22.585Z,16.95
2022-08-27T05:26:50.898Z,16.60
2022-08-27T05:29:18.840Z,15.85
2022-08-27T05:31:48.742Z,15.70
2022-08-27T05:34:18.855Z,16.33
2022-08-27T05:36:53.442Z,16.33
2022-08-27T05:39:20.953Z,15.95
2022-08-27T05:41:48.490Z,16.33
2022-08-27T05:44:40.489Z,16.52
2022-08-27T05:47:05.620Z,14.85
2022-08-27T05:49:33.172Z,15.57
2022-08-27T05:52:00.751Z,14.10
2022-08-27T05:54:28.754Z,14.32
2022-08-27T05:56:56.173Z,13.57
2022-08-27T05:59:42.247Z,14.77
2022-08-27T06:02:09.739Z,13.93
2022-08-27T06:04:37.302Z,13.88
2022-08-27T06:07:04.887Z,14.32
2022-08-27T06:09:32.481Z,15.15
2022-08-27T06:12:02.816Z,13.68
2022-08-27T06:14:30.535Z,15.43
2022-08-27T06:17:00.751Z,15.50
2022-08-27T06:19:28.383Z,16.35
2022-08-27T06:22:00.245Z,14.98
2022-08-27T06:24:29.766Z,14.13
2022-08-27T06:26:57.750Z,14.48
2022-08-27T06:29:25.501Z,14.60
2022-08-27T06:31:55.256Z,15.02
2022-08-27T06:34:23.091Z,15.18
2022-08-27T06:36:50.593Z,15.57
2022-08-27T06:39:18.103Z,16.63
2022-08-27T06:41:45.650Z,14.80
2022-08-27T06:44:14.208Z,15.95
2022-08-27T06:46:43.151Z,16.27
2022-08-27T06:49:12.541Z,17.80
2022-08-27T06:51:45.037Z,18.50
2022-08-27T06:54:14.171Z,16.90
2022-08-27T06:56:43.923Z,16.70
2022-08-27T06:59:15.700Z,17.50
2022-08-27T07:01:46.397Z,17.08
2022-08-27T07:04:19.983Z,16.67
2022-08-27T07:06:47.665Z,15.23
2022-08-27T07:09:15.621Z,16.17
2022-08-27T07:11:44.072Z,17.05
2022-08-27T07:14:11.956Z,16.63
2022-08-27T07:16:40.962Z,16.40
2022-08-27T07:19:09.140Z,16.50
2022-08-27T07:21:39.313Z,15.93
2022-08-27T07:24:08.103Z,16.55
2022-08-27T07:26:38.433Z,18.02
2022-08-27T07:29:08.880Z,17.48
2022-08-27T07:31:36.514Z,15.43
2022-08-27T07:34:05.522Z,15.52
2022-08-27T07:36:34.495Z,16.08
2022-08-27T07:39:02.236Z,15.90
2022-08-27T07:41:32.070Z,16.60
2022-08-27T07:44:19.635Z,15.73
2022-08-27T07:46:49.562Z,17.13
2022-08-27T07:49:18.467Z,16.13
2022-08-27T07:51:46.267Z,15.05
2022-08-27T07:54:14.660Z,15.48
2022-08-27T07:56:42.186Z,15.38
2022-08-27T07:59:12.663Z,14.77
2022-08-27T08:01:43.022Z,14.60
2022-08-27T08:04:10.693Z,15.52
2022-08-27T08:06:39.621Z,15.45
2022-08-27T08:09:07.630Z,17.05
2022-08-27T08:11:38.977Z,15.68
2022-08-27T08:14:06.396Z,13.85
2022-08-27T08:16:33.953Z,14.10
2022-08-27T08:19:02.259Z,15.43
2022-08-27T08:21:29.886Z,15.30
2022-08-27T08:23:57.483Z,15.68
2022-08-27T08:26:24.926Z,14.65
2022-08-27T08:28:52.394Z,13.48
2022-08-27T08:31:20.521Z,14.63
2022-08-27T08:33:48.902Z,16.17
2022-08-27T08:36:18.447Z,15.13
2022-08-27T08:38:47.605Z,14.15
2022-08-27T08:41:41.139Z,13.75
2022-08-27T08:44:36.873Z,13.07
2022-08-27T08:47:30.808Z,12.43
2022-08-27T08:50:06.416Z,13.45
2022-08-27T08:53:02.742Z,13.98
2022-08-27T08:55:48.664Z,13.10
2022-08-27T08:58:16.139Z,12.75
2022-08-27T09:00:45.823Z,12.88
2022-08-27T09:03:15.286Z,12.20
2022-08-27T09:06:02.959Z,12.02
2022-08-27T09:08:41.077Z,11.18
2022-08-27T09:11:47.604Z,12.25
2022-08-27T09:14:20.726Z,12.23
2022-08-27T09:16:51.015Z,12.05
2022-08-27T09:19:24.838Z,11.65
2022-08-27T09:22:01.444Z,12.30
2022-08-27T09:24:44.124Z,12.43
2022-08-27T09:27:15.081Z,11.77
2022-08-27T09:29:54.381Z,12.00
2022-08-27T09:32:25.898Z,12.00
2022-08-27T09:34:59.292Z,11.15
2022-08-27T09:40:23.901Z,10.55
2022-08-27T09:42:57.742Z,11.52
2022-08-27T09:45:30.120Z,10.85
2022-08-27T09:48:20.098Z,10.80
2022-08-27T09:50:52.102Z,10.48
2022-08-27T09:54:00.305Z,10.90
2022-08-27T09:56:34.347Z,11.02
2022-08-27T09:59:11.136Z,11.32
2022-08-27T10:01:52.486Z,11.00
2022-08-27T10:05:01.093Z,11.43
2022-08-27T10:07:47.363Z,11.07
2022-08-27T10:10:25.937Z,11.10
2022-08-27T10:13:00.080Z,12.10
2022-08-27T10:15:43.960Z,11.73
2022-08-27T10:18:32.459Z,11.48
2022-08-27T10:21:27.475Z,11.40
2022-08-27T10:24:12.667Z,12.82
2022-08-27T10:26:57.292Z,11.55
2022-08-27T10:29:45.453Z,12.13
2022-08-27T10:32:16.809Z,11.60
2022-08-27T10:35:06.571Z,12.73
2022-08-27T10:38:07.965Z,12.27
2022-08-27T10:40:46.770Z,13.00
2022-08-27T10:43:35.855Z,12.82
2022-08-27T10:46:17.430Z,12.23
2022-08-27T10:48:55.600Z,12.95
2022-08-27T10:51:36.647Z,13.00
2022-08-27T10:54:12.994Z,13.50
2022-08-27T10:57:28.581Z,23.42
2022-08-27T11:00:12.437Z,12.57
2022-08-27T11:02:45.179Z,13.55
2022-08-27T11:05:15.433Z,13.70
2022-08-27T11:07:49.933Z,13.73
2022-08-27T11:10:47.395Z,13.75
2022-08-27T11:13:41.425Z,12.85
2022-08-27T11:16:23.601Z,13.00
2022-08-27T11:19:03.214Z,12.82
2022-08-27T11:22:04.258Z,13.38
2022-08-27T11:24:49.659Z,12.65
2022-08-27T11:27:23.564Z,13.57
2022-08-27T11:30:11.906Z,12.30
2022-08-27T11:32:59.824Z,12.27
2022-08-27T11:35:51.296Z,11.63
2022-08-27T11:38:30.919Z,11.30
2022-08-27T11:41:33.335Z,11.57
2022-08-27T11:44:17.908Z,11.20
2022-08-27T11:46:53.984Z,11.27
2022-08-27T11:49:30.229Z,11.50
2022-08-27T11:52:02.017Z,11.27
2022-08-27T11:54:44.670Z,11.20
2022-08-27T11:59:44.220Z,11.27
2022-08-27T12:02:20.684Z,12.40
2022-08-27T12:04:50.079Z,11.52
2022-08-27T12:07:18.279Z,11.15
2022-08-27T12:10:00.224Z,11.23
2022-08-27T12:13:04.252Z,11.88
2022-08-27T12:15:59.252Z,11.57
2022-08-27T12:18:45.364Z,11.90
2022-08-27T12:21:25.040Z,12.88
2022-08-27T12:24:17.088Z,15.52
2022-08-27T12:26:57.874Z,12.75
2022-08-27T12:29:31.803Z,12.35
2022-08-27T12:32:27.974Z,11.95
2022-08-27T12:35:11.201Z,11.35
2022-08-27T12:37:51.808Z,11.75
2022-08-27T12:40:30.807Z,11.23
2022-08-27T12:43:13.137Z,11.13
2022-08-27T12:45:49.022Z,11.98
2022-08-27T12:48:24.012Z,12.43
2022-08-27T12:50:55.298Z,11.40
2022-08-27T12:53:56.553Z,12.43
2022-08-27T12:56:29.621Z,12.43
2022-08-27T12:59:24.655Z,11.45
2022-08-27T13:02:10.361Z,12.70
2022-08-27T13:04:41.436Z,13.13
2022-08-27T13:07:09.374Z,12.57
2022-08-27T13:09:39.531Z,12.52
2022-08-27T13:12:17.731Z,13.32
2022-08-27T13:14:45.860Z,12.45
2022-08-27T13:17:24.251Z,13.25
2022-08-27T13:20:01.092Z,12.60
2022-08-27T13:22:39.083Z,13.65
2022-08-27T13:25:18.988Z,12.07
2022-08-27T13:27:54.378Z,12.27
2022-08-27T13:30:36.078Z,10.88
2022-08-27T13:33:07.228Z,11.82
2022-08-27T13:35:35.800Z,11.55
2022-08-27T13:38:05.347Z,12.32
2022-08-27T13:40:50.757Z,11.48
2022-08-27T13:43:18.912Z,10.05
2022-08-27T13:45:50.696Z,12.10
2022-08-27T13:48:24.363Z,11.40
2022-08-27T13:50:55.519Z,11.73
2022-08-27T13:53:57.505Z,11.55
2022-08-27T13:56:32.040Z,12.10
2022-08-27T13:59:15.071Z,11.70
2022-08-27T14:02:04.533Z,11.75
2022-08-27T14:04:46.238Z,11.65
2022-08-27T14:07:21.020Z,12.15
2022-08-27T14:09:55.177Z,12.05
2022-08-27T14:12:41.827Z,12.88
2022-08-27T14:15:46.463Z,11.50
2022-08-27T14:18:42.123Z,11.70
2022-08-27T14:21:13.837Z,11.82
2022-08-27T14:23:41.321Z,11.73
2022-08-27T14:26:09.421Z,11.23
2022-08-27T14:28:37.185Z,11.95
2022-08-27T14:31:04.889Z,12.15
2022-08-27T14:33:32.420Z,11.88
2022-08-27T14:36:01.187Z,11.82
2022-08-27T14:38:31.968Z,11.25
2022-08-27T14:40:59.717Z,12.05
2022-08-27T14:43:27.901Z,11.45
2022-08-27T14:45:57.381Z,11.60
2022-08-27T14:48:37.163Z,12.65
2022-08-27T14:51:12.579Z,10.88
2022-08-27T14:53:40.121Z,11.57
2022-08-27T14:56:07.729Z,10.70
2022-08-27T14:58:35.179Z,12.00
2022-08-27T15:01:03.933Z,11.70
2022-08-27T15:03:32.609Z,11.52
2022-08-27T15:06:00.147Z,12.88
2022-08-27T15:08:29.254Z,12.68
2022-08-27T15:10:59.816Z,11.88
2022-08-27T15:13:27.657Z,12.15
2022-08-27T15:15:55.270Z,12.07
2022-08-27T15:18:22.752Z,12.05
2022-08-27T15:20:50.597Z,13.75
2022-08-27T15:23:18.413Z,13.48
2022-08-27T15:25:46.845Z,13.77
2022-08-27T15:28:14.343Z,13.15
2022-08-27T15:30:42.129Z,13.18
2022-08-27T15:33:09.533Z,12.48
2022-08-27T15:35:37.271Z,12.52
2022-08-27T15:38:04.907Z,12.32
2022-08-27T15:40:35.469Z,12.52
2022-08-27T15:43:07.660Z,12.85
2022-08-27T15:45:36.374Z,11.75
2022-08-27T15:48:04.420Z,13.57
2022-08-27T15:50:32.659Z,13.13
2022-08-27T15:53:04.092Z,14.00
2022-08-27T15:55:35.433Z,14.23
2022-08-27T15:58:03.518Z,14.18
2022-08-27T16:00:34.090Z,13.25
2022-08-27T16:03:05.638Z,14.25
2022-08-27T16:05:35.847Z,13.80
2022-08-27T16:08:04.227Z,13.40
2022-08-27T16:10:32.433Z,13.70
2022-08-27T16:12:59.969Z,13.63
2022-08-27T16:15:27.841Z,13.88
2022-08-27T16:18:00.501Z,15.27
2022-08-27T16:20:29.022Z,15.50
2022-08-27T16:22:56.797Z,16.30
2022-08-27T16:25:24.379Z,16.95
2022-08-27T16:27:53.459Z,17.45
2022-08-27T16:30:22.669Z,18.70
2022-08-27T16:32:52.831Z,19.27
2022-08-27T16:35:21.267Z,27.27
2022-08-27T16:37:48.949Z,23.85
2022-08-27T16:40:16.793Z,21.73
2022-08-27T16:42:50.195Z,20.40
2022-08-27T16:48:04.681Z,21.92
2022-08-27T16:50:35.100Z,21.00
2022-08-27T16:53:07.542Z,23.48
2022-08-27T16:55:37.925Z,23.30
2022-08-27T16:58:10.412Z,21.42
2022-08-27T17:00:39.464Z,21.10
2022-08-27T17:03:08.043Z,20.75
2022-08-27T17:05:35.825Z,21.45
2022-08-27T17:08:05.412Z,22.52
2022-08-27T17:10:39.033Z,22.88
2022-08-27T17:13:09.356Z,24.00
2022-08-27T17:15:37.174Z,22.80
2022-08-27T17:18:04.889Z,25.15
2022-08-27T17:20:33.679Z,23.33
2022-08-27T17:23:01.759Z,27.08
2022-08-27T17:25:29.971Z,23.95
2022-08-27T17:28:00.137Z,22.70
2022-08-27T17:30:28.528Z,24.02
2022-08-27T17:32:56.948Z,25.05
2022-08-27T17:35:24.657Z,25.10
2022-08-27T17:37:52.350Z,24.70
2022-08-27T17:40:20.066Z,26.27
2022-08-27T17:42:47.651Z,29.10
2022-08-27T17:45:17.441Z,28.20
2022-08-27T17:47:45.002Z,38.65
2022-08-27T17:50:12.982Z,28.25
2022-08-27T17:52:40.767Z,26.25
2022-08-27T17:55:08.976Z,29.30
2022-08-27T17:57:41.059Z,28.17
2022-08-27T18:00:12.056Z,29.92
2022-08-27T18:02:45.861Z,32.72
2022-08-27T18:05:14.882Z,30.63
2022-08-27T18:07:43.662Z,29.67
2022-08-27T18:10:15.283Z,30.25
2022-08-27T18:12:44.093Z,28.83
2022-08-27T18:15:23.982Z,32.13
2022-08-27T18:17:53.428Z,32.42
2022-08-27T18:20:23.258Z,30.10
2022-08-27T18:22:51.577Z,31.17
2022-08-27T18:25:21.014Z,25.92
2022-08-27T18:27:50.831Z,28.42
2022-08-27T18:30:19.391Z,28.05
2022-08-27T18:32:47.048Z,27.92
2022-08-27T18:35:19.772Z,28.92
2022-08-27T18:37:47.847Z,27.42
2022-08-27T18:40:17.610Z,30.13
2022-08-27T18:42:45.909Z,26.25
2022-08-27T18:45:23.479Z,29.02
2022-08-27T18:47:52.559Z,31.77
2022-08-27T18:50:20.986Z,36.08
2022-08-27T18:52:50.742Z,29.52
2022-08-27T18:55:22.558Z,29.90
2022-08-27T18:57:50.753Z,33.70
2022-08-27T19:00:19.549Z,31.65
2022-08-27T19:02:52.395Z,30.70
2022-08-27T19:05:26.936Z,30.95
2022-08-27T19:07:57.334Z,31.83
2022-08-27T19:10:26.271Z,29.48
2022-08-27T19:12:54.221Z,29.52
2022-08-27T19:15:21.696Z,30.70
2022-08-27T19:17:53.260Z,30.42
2022-08-27T19:20:20.833Z,28.60
2022-08-27T19:22:49.054Z,30.83
2022-08-27T19:25:17.887Z,27.55
2022-08-27T19:27:46.964Z,27.75
2022-08-27T19:30:15.691Z,30.63
2022-08-27T19:32:43.895Z,28.60
2022-08-27T19:35:11.739Z,26.65
2022-08-27T19:37:43.784Z,27.08
2022-08-27T19:40:14.782Z,27.33
2022-08-27T19:42:42.595Z,26.70
2022-08-27T19:45:10.445Z,28.00
2022-08-27T19:47:38.557Z,28.45
2022-08-27T19:50:06.684Z,27.23
2022-08-27T19:52:34.158Z,28.08
2022-08-27T19:55:13.484Z,27.48
2022-08-27T19:57:42.760Z,30.65
2022-08-27T20:00:12.988Z,29.67
2022-08-27T20:02:41.395Z,28.52
2022-08-27T20:05:18.402Z,31.77
2022-08-27T20:07:51.879Z,32.83
2022-08-27T20:10:22.344Z,31.20
2022-08-27T20:12:50.467Z,31.23
2022-08-27T20:15:19.744Z,28.45
2022-08-27T20:17:51.510Z,28.38
2022-08-27T20:20:22.215Z,31.52
2022-08-27T20:22:50.351Z,30.17
2022-08-27T20:25:18.716Z,29.35
2022-08-27T20:27:47.692Z,29.20
2022-08-27T20:30:17.409Z,28.40
2022-08-27T20:32:47.028Z,27.77
2022-08-27T20:35:16.059Z,29.38
2022-08-27T20:37:44.170Z,30.02
2022-08-27T20:40:16.653Z,28.17
2022-08-27T20:42:44.766Z,27.52
2022-08-27T20:45:13.928Z,28.25
2022-08-27T20:47:43.861Z,26.88
2022-08-27T20:50:12.989Z,29.58
2022-08-27T20:52:41.839Z,27.83
2022-08-27T20:55:12.383Z,26.20
2022-08-27T20:58:03.208Z,27.52
2022-08-27T21:00:35.650Z,27.42
2022-08-27T21:03:03.526Z,28.20
2022-08-27T21:05:34.529Z,25.67
2022-08-27T21:08:04.681Z,25.77
2022-08-27T21:10:33.309Z,28.17
2022-08-27T21:13:04.560Z,28.70
2022-08-27T21:15:32.823Z,28.02
2022-08-27T21:18:00.354Z,27.55
2022-08-27T21:20:27.842Z,29.67
2022-08-27T21:22:57.981Z,30.35
2022-08-27T21:25:27.154Z,30.08
2022-08-27T21:27:57.180Z,29.60
2022-08-27T21:30:26.710Z,28.40
2022-08-27T21:32:56.124Z,28.25
2022-08-27T21:35:27.611Z,29.75
2022-08-27T21:37:56.511Z,31.20
2022-08-27T21:40:25.474Z,29.98
2022-08-27T21:42:54.449Z,32.40
2022-08-27T21:45:22.475Z,29.15
2022-08-27T21:47:51.986Z,29.08
2022-08-27T21:50:20.743Z,30.08
2022-08-27T21:52:48.269Z,30.20
2022-08-27T21:55:15.997Z,28.85
2022-08-27T21:57:43.459Z,28.80
2022-08-27T22:00:26.045Z,27.65
2022-08-27T22:02:53.570Z,31.33
2022-08-27T22:05:22.262Z,28.92
2022-08-27T22:07:49.833Z,27.83
2022-08-27T22:10:17.611Z,29.98
2022-08-27T22:12:45.039Z,29.52
2022-08-27T22:15:13.194Z,31.45
2022-08-27T22:17:40.602Z,28.35
2022-08-27T22:20:09.818Z,27.63
2022-08-27T22:22:38.197Z,30.45
2022-08-27T22:25:07.646Z,29.55
2022-08-27T22:27:35.771Z,26.30
2022-08-27T22:30:06.486Z,30.15
2022-08-27T22:32:37.536Z,27.65
2022-08-27T22:35:05.336Z,28.42
2022-08-27T22:37:32.855Z,27.08
2022-08-27T22:40:00.454Z,28.10
2022-08-27T22:42:30.402Z,30.15
2022-08-27T22:44:57.860Z,27.70
2022-08-27T22:47:25.411Z,26.10
2022-08-27T22:49:53.086Z,28.95
2022-08-27T22:52:28.269Z,28.80
2022-08-27T22:54:56.138Z,28.05
2022-08-27T22:57:23.555Z,27.63
2022-08-27T22:59:51.095Z,27.15
2022-08-27T23:02:18.981Z,26.85
2022-08-27T23:04:54.867Z,27.92
2022-08-27T23:07:24.582Z,28.38
2022-08-27T23:09:52.210Z,27.90
2022-08-27T23:12:20.115Z,26.40
2022-08-27T23:14:47.749Z,27.95
2022-08-27T23:17:16.333Z,29.63
2022-08-27T23:19:43.826Z,25.08
2022-08-27T23:22:11.807Z,25.70
2022-08-27T23:24:59.137Z,24.65
2022-08-27T23:27:29.700Z,25.67
2022-08-27T23:29:59.141Z,26.58
2022-08-27T23:32:27.336Z,27.88
2022-08-27T23:34:55.313Z,25.60
2022-08-27T23:37:23.115Z,25.67
2022-08-27T23:39:50.720Z,28.63
2022-08-27T23:42:18.975Z,28.20
2022-08-27T23:44:47.573Z,25.85
2022-08-27T23:47:16.144Z,24.83
2022-08-27T23:49:44.075Z,26.08
2022-08-27T23:52:13.211Z,26.23
2022-08-27T23:54:41.463Z,26.00
2022-08-27T23:57:09.018Z,25.38
2022-08-27T23:59:36.363Z,25.50
